Time;durP1;ratioP1;P1;durP2;ratioP2;P2;SDS_P1;SDS_P2;PMS_P1;PMS_P2;Temp;Humidity;BMP_temperature;BMP_pressure;BME280_temperature;BME280_humidity;BME280_pressure;Samples;Min_cycle;Max_cycle;Signal;HPM_P1;HPM_P2
2022/04/01 00:02:45;;;;;;;5.88;5.30;;;;;;;-0.39;100.00;100576.44;10375796;28;20038;-74
2022/04/01 00:07:46;;;;;;;5.40;4.45;;;;;;;-0.33;100.00;100577.72;10358771;28;20034;-74
2022/04/01 00:12:46;;;;;;;5.55;5.05;;;;;;;-0.36;100.00;100586.81;10375635;28;20064;-75
2022/04/01 00:17:47;;;;;;;6.40;4.97;;;;;;;-0.30;100.00;100599.56;10359037;28;20545;-74
2022/04/01 00:22:48;;;;;;;4.88;4.50;;;;;;;-0.33;100.00;100599.00;10375614;28;20561;-74
2022/04/01 00:27:50;;;;;;;8.15;3.85;;;;;;;-0.33;100.00;100599.00;10375392;28;20065;-74
2022/04/01 00:32:50;;;;;;;4.65;4.18;;;;;;;-0.39;100.00;100597.72;10375950;28;20052;-74
2022/04/01 00:37:52;;;;;;;18.98;5.70;;;;;;;-0.35;100.00;100600.94;10358943;28;20044;-74
2022/04/01 00:42:52;;;;;;;9.85;4.55;;;;;;;-0.38;100.00;100588.78;10377085;28;20037;-74
2022/04/01 00:47:55;;;;;;;7.03;5.72;;;;;;;-0.46;100.00;100612.53;10376105;28;20534;-74
2022/04/01 00:52:56;;;;;;;6.20;5.60;;;;;;;-0.47;100.00;100613.50;10377429;28;20083;-73
2022/04/01 00:57:56;;;;;;;6.65;6.15;;;;;;;-0.49;100.00;100626.94;10382168;28;20519;-73
2022/04/01 01:02:58;;;;;;;6.90;6.28;;;;;;;-0.48;100.00;100630.44;10376304;28;20064;-73
2022/04/01 01:07:58;;;;;;;6.30;5.40;;;;;;;-0.50;100.00;100621.75;10376234;28;20030;-73
2022/04/01 01:12:59;;;;;;;7.22;6.13;;;;;;;-0.50;100.00;100649.19;10373420;28;20057;-73
2022/04/01 01:17:59;;;;;;;6.10;5.50;;;;;;;-0.54;100.00;100639.81;10382833;28;20042;-72
2022/04/01 01:23:00;;;;;;;8.30;7.50;;;;;;;-0.52;100.00;100637.00;10385788;28;20064;-72
2022/04/01 01:28:00;;;;;;;7.78;6.78;;;;;;;-0.47;100.00;100637.44;10389131;28;20473;-72
2022/04/01 01:33:01;;;;;;;10.25;7.72;;;;;;;-0.50;100.00;100648.34;10385318;28;20042;-72
2022/04/01 01:38:02;;;;;;;7.72;6.93;;;;;;;-0.44;100.00;100645.16;10381675;28;20084;-72
2022/04/01 01:43:02;;;;;;;6.30;5.70;;;;;;;-0.38;100.00;100639.31;10382714;28;20038;-73
2022/04/01 01:48:03;;;;;;;5.38;4.97;;;;;;;-0.40;100.00;100643.91;10382858;28;20030;-73
2022/04/01 01:58:22;;;;;;;9.25;6.65;;;;;;;-0.34;100.00;100645.22;10380996;28;20129;-73
2022/04/01 02:03:23;;;;;;;6.07;5.47;;;;;;;-0.32;100.00;100652.09;10381506;28;20041;-73
2022/04/01 02:08:23;;;;;;;6.65;6.05;;;;;;;-0.39;100.00;100642.09;10380118;28;20062;-72
2022/04/01 02:13:24;;;;;;;9.55;6.45;;;;;;;-0.35;100.00;100657.69;10380511;28;20054;-72
2022/04/01 02:18:24;;;;;;;5.85;5.30;;;;;;;-0.31;100.00;100671.56;10380491;28;20124;-72
2022/04/01 02:23:25;;;;;;;6.22;5.72;;;;;;;-0.27;100.00;100664.97;10380286;28;20076;-72
2022/04/01 02:28:26;;;;;;;8.20;7.40;;;;;;;-0.27;100.00;100670.31;10378726;28;20393;-72
2022/04/01 02:33:27;;;;;;;7.85;6.43;;;;;;;-0.29;100.00;100683.75;10379745;28;20034;-72
2022/04/01 02:38:29;;;;;;;7.35;6.68;;;;;;;-0.32;100.00;100673.38;10378538;28;20462;-73
2022/04/01 02:43:29;;;;;;;7.40;6.70;;;;;;;-0.30;100.00;100682.06;10396437;28;20042;-72
2022/04/01 02:48:30;;;;;;;5.30;4.90;;;;;;;-0.28;100.00;100688.09;10379927;28;20116;-72
2022/04/01 02:53:30;;;;;;;10.80;6.32;;;;;;;-0.25;100.00;100703.78;10380345;28;20061;-72
2022/04/01 02:58:30;;;;;;;8.30;7.47;;;;;;;-0.21;100.00;100692.88;10379657;28;20153;-72
2022/04/01 03:03:31;;;;;;;6.53;5.93;;;;;;;-0.25;100.00;100702.97;10379264;28;20053;-72
2022/04/01 03:08:32;;;;;;;9.75;6.93;;;;;;;-0.29;100.00;100705.03;10379718;28;20038;-72
2022/04/01 03:13:33;;;;;;;12.05;7.93;;;;;;;-0.31;100.00;100714.97;10377460;28;20057;-72
2022/04/01 03:18:34;;;;;;;7.55;6.75;;;;;;;-0.27;100.00;100718.19;10378711;28;20393;-72
2022/04/01 03:23:36;;;;;;;9.27;6.32;;;;;;;-0.29;100.00;100713.03;10378504;28;20034;-72
2022/04/01 03:28:37;;;;;;;10.25;8.35;;;;;;;-0.35;100.00;100725.97;10377908;28;20034;-73
2022/04/01 03:33:38;;;;;;;9.13;8.23;;;;;;;-0.34;100.00;100722.38;10381295;28;20030;-73
2022/04/01 03:38:38;;;;;;;10.93;8.40;;;;;;;-0.32;100.00;100742.56;10381235;28;20038;-73
2022/04/01 03:43:40;;;;;;;9.38;8.52;;;;;;;-0.32;100.00;100736.38;10378310;28;20058;-72
2022/04/01 03:48:45;;;;;;;11.02;9.05;;;;;;;-0.34;100.00;100755.13;10360478;28;20470;-73
2022/04/01 03:53:52;;;;;;;10.13;9.18;;;;;;;-0.36;100.00;100754.41;10361058;28;20034;-73
2022/04/01 03:58:53;;;;;;;10.50;8.23;;;;;;;-0.40;100.00;100768.97;10376889;28;20041;-72
2022/04/01 04:03:54;;;;;;;11.05;9.00;;;;;;;-0.34;100.00;100783.56;10361226;28;20449;-73
2022/04/01 04:08:58;;;;;;;16.13;8.05;;;;;;;-0.34;100.00;100768.44;10360104;28;20030;-73
2022/04/01 04:13:59;;;;;;;8.95;7.45;;;;;;;-0.34;100.00;100780.91;10359255;28;20058;-73
2022/04/01 04:19:07;;;;;;;10.55;8.15;;;;;;;-0.37;100.00;100786.47;10375650;28;20038;-73
2022/04/01 04:24:14;;;;;;;10.68;8.30;;;;;;;-0.28;100.00;100796.34;10376580;28;20087;-73
2022/04/01 04:29:16;;;;;;;8.75;7.97;;;;;;;-0.15;100.00;100796.16;10360180;28;20021;-73
2022/04/01 04:34:17;;;;;;;9.75;7.68;;;;;;;-0.16;100.00;100800.63;10375671;28;20038;-74
2022/04/01 04:39:31;;;;;;;10.88;7.78;;;;;;;-0.16;100.00;100810.41;10376245;28;20461;-73
2022/04/01 04:44:31;;;;;;;9.27;6.68;;;;;;;-0.18;100.00;100831.84;10376174;28;20378;-73
2022/04/01 04:49:32;;;;;;;6.30;5.70;;;;;;;-0.15;100.00;100833.41;10373610;28;20034;-72
2022/04/01 04:54:32;;;;;;;8.55;7.15;;;;;;;-0.13;100.00;100842.09;10375934;28;20046;-73
2022/04/01 04:59:34;;;;;;;8.25;7.30;;;;;;;-0.12;100.00;100849.13;10375951;28;20124;-73
2022/04/01 05:04:53;;;;;;;6.78;6.13;;;;;;;-0.12;100.00;100859.75;10374629;28;20033;-73
2022/04/01 05:10:08;;;;;;;11.25;8.32;;;;;;;-0.16;100.00;100869.84;10377014;28;20030;-72
2022/04/01 05:15:09;;;;;;;10.70;7.45;;;;;;;-0.08;100.00;100885.16;10378055;28;20489;-72
2022/04/01 05:20:16;;;;;;;8.40;7.07;;;;;;;-0.08;100.00;100891.31;10376519;28;20124;-72
2022/04/01 05:25:19;;;;;;;9.30;7.63;;;;;;;-0.05;100.00;100901.69;10374238;28;20041;-72
2022/04/01 05:30:20;;;;;;;8.13;7.32;;;;;;;-0.05;100.00;100903.53;10373355;28;20034;-72
2022/04/01 05:35:21;;;;;;;17.02;7.53;;;;;;;-0.07;100.00;100922.25;10373985;28;20485;-72
2022/04/01 05:40:21;;;;;;;10.63;5.45;;;;;;;-0.06;100.00;100925.78;10356817;28;20034;-71
2022/04/01 05:45:24;;;;;;;8.30;6.15;;;;;;;-0.09;100.00;100932.22;10374279;28;20067;-71
2022/04/01 05:50:25;;;;;;;6.20;5.65;;;;;;;-0.07;100.00;100950.69;10374196;28;20117;-71
2022/04/01 05:55:26;;;;;;;9.40;6.43;;;;;;;-0.02;100.00;100936.03;10374072;28;20038;-71
2022/04/01 06:00:26;;;;;;;13.98;7.13;;;;;;;0.02;100.00;100946.44;10375289;28;20038;-71
2022/04/01 06:05:29;;;;;;;11.65;7.05;;;;;;;0.08;100.00;100949.44;10380820;28;20034;-71
2022/04/01 06:10:46;;;;;;;10.65;6.72;;;;;;;0.08;100.00;100953.91;10379880;28;20496;-70
2022/04/01 06:16:20;;;;;;;22.38;6.75;;;;;;;0.11;100.00;100967.81;10380540;28;20121;-70
2022/04/01 06:21:24;;;;;;;7.25;5.32;;;;;;;0.15;100.00;100974.56;10379843;28;20375;-70
2022/04/01 06:26:25;;;;;;;6.32;5.05;;;;;;;0.18;100.00;100984.13;10380264;28;20478;-70
2022/04/01 06:31:25;;;;;;;7.53;5.78;;;;;;;0.28;100.00;100984.19;10364595;28;20049;-69
2022/04/01 06:36:35;;;;;;;10.85;6.03;;;;;;;0.28;100.00;100989.53;10380361;28;20500;-70
2022/04/01 06:41:42;;;;;;;6.88;5.93;;;;;;;0.46;100.00;101002.13;10379118;28;20029;-70
2022/04/01 06:46:43;;;;;;;5.53;5.03;;;;;;;0.41;100.00;101007.00;10379334;28;20083;-70
2022/04/01 06:51:43;;;;;;;6.65;4.82;;;;;;;0.36;100.00;101011.03;10379799;28;20073;-70
2022/04/01 06:56:44;;;;;;;8.75;4.57;;;;;;;0.32;100.00;101028.22;10362641;28;20120;-70
2022/04/01 07:01:44;;;;;;;4.95;4.45;;;;;;;0.45;100.00;101024.44;10380380;28;20440;-70
2022/04/01 07:06:45;;;;;;;10.20;4.22;;;;;;;0.47;100.00;101035.78;10379887;28;20041;-70
2022/04/01 07:11:45;;;;;;;5.45;4.78;;;;;;;0.43;100.00;101038.84;10376811;28;20112;-70
2022/04/01 07:16:45;;;;;;;7.40;4.00;;;;;;;0.41;100.00;101049.63;10344945;28;20133;-70
2022/04/01 07:21:46;;;;;;;8.85;4.35;;;;;;;0.56;100.00;101044.00;10379568;28;20065;-70
2022/04/01 07:26:46;;;;;;;5.05;4.32;;;;;;;0.63;100.00;101042.50;10360123;28;20375;-71
2022/04/01 07:37:10;;;;;;;5.22;4.03;;;;;;;0.93;100.00;101050.56;10363714;28;20109;-71
2022/04/01 07:42:11;;;;;;;5.18;4.60;;;;;;;1.23;100.00;101051.56;10378190;28;20033;-71
2022/04/01 07:47:14;;;;;;;5.20;4.70;;;;;;;1.44;100.00;101054.19;10378702;28;20038;-71
2022/04/01 07:52:15;;;;;;;9.63;5.32;;;;;;;1.71;100.00;101060.72;10375427;28;20026;-71
2022/04/01 07:57:15;;;;;;;5.43;3.92;;;;;;;1.96;100.00;101064.72;10359593;28;20045;-71
2022/04/01 08:02:16;;;;;;;6.35;4.65;;;;;;;2.08;100.00;101067.13;10376098;28;20030;-71
2022/04/01 08:07:17;;;;;;;6.97;5.20;;;;;;;2.27;100.00;101074.34;10376813;28;20036;-72
2022/04/01 08:12:17;;;;;;;9.40;4.75;;;;;;;2.55;100.00;101086.03;10375362;28;20050;-71
2022/04/01 08:17:18;;;;;;;3.45;2.95;;;;;;;2.98;100.00;101082.03;10376964;28;20165;-72
2022/04/01 08:22:18;;;;;;;6.93;4.40;;;;;;;3.21;100.00;101095.06;10376442;28;20046;-72
2022/04/01 08:27:19;;;;;;;4.63;2.53;;;;;;;3.20;100.00;101099.59;10376216;28;20034;-72
2022/04/01 08:32:19;;;;;;;7.15;2.75;;;;;;;3.45;100.00;101110.66;10376271;28;20128;-72
2022/04/01 08:37:19;;;;;;;6.72;2.78;;;;;;;3.16;100.00;101113.38;10375365;28;20034;-73
2022/04/01 08:42:20;;;;;;;6.82;3.20;;;;;;;3.37;100.00;101119.38;10374700;28;20045;-74
2022/04/01 08:47:20;;;;;;;2.67;2.40;;;;;;;3.25;100.00;101124.09;10376432;28;20041;-76
2022/04/01 08:52:21;;;;;;;3.30;2.47;;;;;;;3.11;100.00;101126.38;10375534;28;20038;-76
2022/04/01 08:57:23;;;;;;;11.02;1.73;;;;;;;3.23;100.00;101135.91;10376174;28;20034;-75
2022/04/01 09:02:24;;;;;;;7.45;2.00;;;;;;;3.30;100.00;101145.06;10378891;28;20123;-75
2022/04/01 09:07:24;;;;;;;9.63;2.08;;;;;;;3.00;100.00;101148.78;10381348;28;20061;-75
2022/04/01 09:12:25;;;;;;;1.70;1.48;;;;;;;2.80;100.00;101159.47;10375361;28;20113;-74
2022/04/01 09:17:42;;;;;;;3.75;2.10;;;;;;;2.73;100.00;101163.69;10373617;28;20038;-74
2022/04/01 09:22:43;;;;;;;1.52;1.42;;;;;;;3.05;100.00;101167.06;10373019;28;20109;-73
2022/04/01 09:27:53;;;;;;;3.35;1.95;;;;;;;3.38;100.00;101188.03;10375172;28;20026;-73
2022/04/01 09:32:58;;;;;;;5.68;2.42;;;;;;;3.79;100.00;101180.56;10374980;28;20458;-74
2022/04/01 09:38:04;;;;;;;1.55;1.38;;;;;;;4.33;100.00;101191.47;10362375;28;20125;-74
2022/04/01 09:43:06;;;;;;;1.85;1.75;;;;;;;4.68;100.00;101196.03;10381846;28;20037;-73
2022/04/01 09:48:08;;;;;;;4.18;1.50;;;;;;;4.77;99.65;101197.81;10380407;28;20497;-76
2022/04/01 09:53:10;;;;;;;1.77;1.67;;;;;;;4.83;97.24;101212.47;10381918;28;20033;-75
2022/04/01 09:58:11;;;;;;;1.90;1.48;;;;;;;4.81;94.88;101198.34;10380773;28;20084;-74
2022/04/01 10:03:12;;;;;;;1.70;1.60;;;;;;;5.37;100.00;101199.84;10381351;28;20092;-74
2022/04/01 10:08:14;;;;;;;2.63;1.88;;;;;;;5.44;96.62;101200.06;10363938;28;20068;-74
2022/04/01 10:13:25;;;;;;;1.88;1.50;;;;;;;4.67;100.00;101207.78;10379622;28;20045;-74
2022/04/01 10:18:26;;;;;;;5.38;1.75;;;;;;;4.75;100.00;101221.25;10380477;28;20048;-75
2022/04/01 10:23:44;;;;;;;1.50;1.45;;;;;;;6.03;100.00;101217.25;10379328;28;20377;-75
2022/04/01 10:28:45;;;;;;;2.42;2.08;;;;;;;6.28;97.70;101227.13;10379396;28;20105;-75
2022/04/01 10:33:46;;;;;;;1.48;1.40;;;;;;;5.71;94.38;101220.56;10363885;28;20037;-76
2022/04/01 10:38:51;;;;;;;2.38;2.17;;;;;;;5.22;98.03;101230.94;10379530;28;20397;-75
2022/04/01 10:43:57;;;;;;;1.67;1.58;;;;;;;5.42;93.56;101251.25;10363021;28;20040;-75
2022/04/01 10:54:47;;;;;;;1.10;1.10;;;;;;;6.57;95.13;101235.81;10379788;28;20046;-75
2022/04/01 10:59:50;;;;;;;1.20;1.15;;;;;;;7.45;95.07;101230.72;10380497;28;20033;-76
2022/04/01 11:04:53;;;;;;;1.45;1.30;;;;;;;7.14;93.05;101252.94;10378606;28;20117;-76
2022/04/01 11:09:57;;;;;;;2.55;1.65;;;;;;;6.99;89.70;101241.16;10396679;28;20038;-77
2022/04/01 11:15:21;;;;;;;4.70;1.45;;;;;;;5.82;91.60;101252.56;10378785;28;20405;-77
2022/04/01 11:20:18;;;;;;;1.65;1.58;;;;;;;5.11;90.06;101253.50;10375473;28;20038;-77
2022/04/01 11:25:22;;;;;;;3.05;1.77;;;;;;;5.97;92.08;101252.88;10371747;28;20038;-77
2022/04/01 11:30:26;;;;;;;2.20;2.00;;;;;;;5.97;92.27;101277.06;10379056;28;20045;-77
2022/04/01 11:35:31;;;;;;;3.05;1.45;;;;;;;6.04;88.66;101268.19;10377201;28;20038;-77
2022/04/01 11:40:33;;;;;;;1.70;1.70;;;;;;;6.87;87.54;101262.16;10377174;28;20061;-77
2022/04/01 11:45:36;;;;;;;1.70;1.60;;;;;;;7.10;87.24;101264.22;10376297;28;20033;-77
2022/04/01 11:50:36;;;;;;;8.30;2.47;;;;;;;6.15;89.28;101263.53;10376889;28;20030;-77
2022/04/01 11:55:42;;;;;;;1.65;1.55;;;;;;;5.36;88.92;101279.59;10375605;28;20037;-77
2022/04/01 12:00:43;;;;;;;2.15;1.95;;;;;;;7.27;85.85;101270.47;10377287;28;20391;-77
2022/04/01 12:05:43;;;;;;;1.80;1.70;;;;;;;6.25;84.89;101269.63;10376327;28;20030;-77
2022/04/01 12:10:57;;;;;;;7.75;2.60;;;;;;;5.33;87.30;101281.75;10376109;28;20421;-77
2022/04/01 12:15:59;;;;;;;2.40;2.25;;;;;;;5.57;89.01;101273.88;10376804;28;20085;-77
2022/04/01 12:21:00;;;;;;;2.00;1.85;;;;;;;5.89;90.72;101293.94;10375127;28;20490;-77
2022/04/01 12:26:00;;;;;;;2.13;2.03;;;;;;;7.50;83.68;101276.03;10377300;28;20145;-77
2022/04/01 12:31:01;;;;;;;1.90;1.75;;;;;;;6.85;89.01;101284.84;10378191;28;20180;-77
2022/04/01 12:36:08;;;;;;;2.00;1.90;;;;;;;6.98;89.01;101296.00;10374583;28;20029;-77
2022/04/01 12:41:19;;;;;;;2.35;2.15;;;;;;;6.41;84.18;101302.00;10376946;28;20061;-77
2022/04/01 12:46:30;;;;;;;2.05;1.75;;;;;;;5.63;87.68;101283.16;10378619;28;20037;-77
2022/04/01 12:51:34;;;;;;;1.60;1.50;;;;;;;5.94;87.49;101302.41;10379816;28;20504;-77
2022/04/01 12:56:39;;;;;;;2.58;2.03;;;;;;;5.90;88.71;101303.66;10360202;28;20029;-78
2022/04/01 13:01:43;;;;;;;1.83;1.67;;;;;;;5.40;86.36;101314.19;10375290;28;20367;-77
2022/04/01 13:07:04;;;;;;;7.47;2.55;;;;;;;5.42;84.59;101309.50;10375542;28;20042;-77
2022/04/01 13:12:05;;;;;;;3.15;2.85;;;;;;;5.22;86.44;101312.31;10373613;28;20049;-77
2022/04/01 13:17:10;;;;;;;2.17;1.92;;;;;;;5.34;88.54;101323.69;10373223;28;20115;-77
2022/04/01 13:22:11;;;;;;;2.65;2.10;;;;;;;5.71;92.20;101314.59;10373058;28;20029;-77
2022/04/01 13:27:13;;;;;;;1.95;1.80;;;;;;;5.54;88.04;101313.63;10375303;28;20026;-78
2022/04/01 13:32:16;;;;;;;3.97;2.03;;;;;;;5.38;88.22;101305.44;10374407;28;20408;-78
2022/04/01 13:37:17;;;;;;;2.85;2.13;;;;;;;5.11;88.27;101329.50;10373783;28;20051;-78
2022/04/01 13:42:19;;;;;;;1.70;1.60;;;;;;;4.99;88.97;101335.25;10372999;28;20041;-78
2022/04/01 13:47:19;;;;;;;1.83;1.73;;;;;;;4.80;90.22;101320.09;10372842;28;20401;-78
2022/04/01 13:52:20;;;;;;;1.88;1.77;;;;;;;4.72;87.83;101333.38;10372416;28;20049;-78
2022/04/01 13:57:21;;;;;;;11.30;2.47;;;;;;;4.86;92.10;101328.38;10392092;28;20041;-78
2022/04/01 14:02:21;;;;;;;3.15;2.35;;;;;;;5.23;85.55;101329.28;10373115;28;20488;-78
2022/04/01 14:07:22;;;;;;;2.70;2.50;;;;;;;5.73;88.42;101324.19;10379662;28;20034;-78
2022/04/01 14:12:23;;;;;;;2.35;2.15;;;;;;;5.57;90.08;101316.00;10377870;28;20050;-78
2022/04/01 14:17:23;;;;;;;3.28;2.08;;;;;;;5.50;96.32;101325.69;10374003;28;20489;-78
2022/04/01 14:22:24;;;;;;;1.83;1.73;;;;;;;5.48;91.34;101327.69;10376419;28;20037;-78
2022/04/01 14:27:24;;;;;;;1.75;1.65;;;;;;;5.45;91.04;101320.75;10382852;28;20458;-78
2022/04/01 14:32:25;;;;;;;2.20;2.00;;;;;;;5.56;92.82;101331.28;10379548;28;20096;-78
2022/04/01 14:37:25;;;;;;;9.85;1.98;;;;;;;5.42;91.37;101310.31;10380998;28;20048;-78
2022/04/01 14:42:27;;;;;;;2.45;2.25;;;;;;;5.45;87.27;101336.03;10381011;28;20091;-78
2022/04/01 14:47:28;;;;;;;1.30;1.20;;;;;;;5.55;84.26;101336.81;10380107;28;20037;-78
2022/04/01 14:52:28;;;;;;;4.72;2.38;;;;;;;5.83;85.07;101334.88;10380927;28;20030;-78
2022/04/01 14:57:29;;;;;;;4.35;2.60;;;;;;;5.94;84.34;101334.66;10382763;28;20480;-78
2022/04/01 15:02:29;;;;;;;3.90;2.10;;;;;;;5.65;91.08;101344.78;10380140;28;20034;-78
2022/04/01 15:07:29;;;;;;;8.85;2.03;;;;;;;5.38;88.85;101356.47;10380461;28;20041;-78
2022/04/01 15:12:30;;;;;;;2.15;1.73;;;;;;;5.23;86.42;101348.94;10378489;28;20062;-78
2022/04/01 15:17:38;;;;;;;15.38;2.55;;;;;;;5.20;88.49;101359.97;10379558;28;20033;-78
2022/04/01 15:22:40;;;;;;;1.77;1.67;;;;;;;5.32;89.42;101366.78;10379230;28;20411;-78
2022/04/01 15:27:42;;;;;;;5.78;2.15;;;;;;;5.07;85.80;101376.44;10361545;28;20052;-79
2022/04/01 15:32:43;;;;;;;3.13;2.20;;;;;;;4.89;86.66;101371.03;10378546;28;20094;-78
2022/04/01 15:37:50;;;;;;;8.55;3.00;;;;;;;4.99;85.50;101386.22;10378150;28;20037;-78
2022/04/01 15:42:55;;;;;;;4.93;2.38;;;;;;;5.12;85.72;101368.78;10378343;28;20041;-78
2022/04/01 15:47:56;;;;;;;4.22;2.08;;;;;;;5.30;85.16;101382.25;10361247;28;20512;-78
2022/04/01 15:53:01;;;;;;;4.93;3.00;;;;;;;5.13;89.05;101381.19;10379065;28;20038;-78
2022/04/01 15:58:02;;;;;;;1.80;1.70;;;;;;;5.11;88.37;101399.31;10383174;28;20091;-78
2022/04/01 16:03:13;;;;;;;2.47;1.90;;;;;;;4.96;85.08;101394.59;10377799;28;20076;-78
2022/04/01 16:08:13;;;;;;;1.80;1.70;;;;;;;4.87;87.18;101407.03;10376157;28;20070;-78
2022/04/01 16:13:13;;;;;;;4.22;2.55;;;;;;;4.64;87.93;101411.94;10375975;28;20158;-78
2022/04/01 16:18:14;;;;;;;2.10;1.88;;;;;;;4.61;84.71;101410.38;10374997;28;20540;-78
2022/04/01 16:23:17;;;;;;;1.80;1.70;;;;;;;4.66;84.78;101418.00;10376320;28;20100;-78
2022/04/01 16:28:18;;;;;;;1.52;1.42;;;;;;;4.92;87.35;101436.13;10376975;28;20034;-78
2022/04/01 16:33:19;;;;;;;11.95;2.63;;;;;;;5.00;82.93;101429.00;10378249;28;20091;-78
2022/04/01 16:38:20;;;;;;;3.28;2.22;;;;;;;4.92;88.73;101452.25;10378776;28;20367;-78
2022/04/01 16:43:21;;;;;;;3.30;1.40;;;;;;;4.61;83.97;101433.69;10378065;28;20042;-78
2022/04/01 16:48:21;;;;;;;1.98;1.77;;;;;;;4.34;81.71;101442.47;10358988;28;20025;-78
2022/04/01 16:53:22;;;;;;;3.53;2.13;;;;;;;4.14;82.23;101455.06;10379735;28;20034;-79
2022/04/01 16:58:23;;;;;;;8.10;2.28;;;;;;;4.10;85.84;101451.81;10374537;28;20041;-78
2022/04/01 17:03:24;;;;;;;1.88;1.77;;;;;;;4.16;86.19;101450.41;10375409;28;20057;-78
2022/04/01 17:13:43;;;;;;;2.50;2.03;;;;;;;4.01;83.39;101462.56;10376021;28;20049;-78
2022/04/01 17:18:45;;;;;;;2.80;2.08;;;;;;;3.89;85.15;101468.06;10374476;28;20030;-78
2022/04/01 17:23:46;;;;;;;1.60;1.50;;;;;;;3.88;85.78;101481.59;10375956;28;20037;-78
2022/04/01 17:28:53;;;;;;;4.53;1.45;;;;;;;3.83;83.47;101489.19;10376080;28;20030;-78
2022/04/01 17:33:53;;;;;;;4.47;3.20;;;;;;;3.89;82.91;101472.56;10359167;28;20489;-78
2022/04/01 17:38:54;;;;;;;2.72;1.92;;;;;;;3.84;80.14;101480.19;10357626;28;20033;-76
2022/04/01 17:43:55;;;;;;;1.27;1.27;;;;;;;3.84;79.21;101486.38;10375286;28;20121;-76
2022/04/01 17:48:55;;;;;;;3.90;1.70;;;;;;;3.82;82.77;101484.81;10357735;28;20022;-76
2022/04/01 17:53:55;;;;;;;2.47;2.28;;;;;;;3.71;83.34;101502.72;10375956;28;20040;-76
2022/04/01 17:58:56;;;;;;;2.10;1.92;;;;;;;3.74;86.92;101515.00;10380386;28;20089;-76
2022/04/01 18:03:57;;;;;;;1.10;1.10;;;;;;;3.64;90.23;101523.00;10382386;28;20389;-76
2022/04/01 18:08:58;;;;;;;4.38;1.80;;;;;;;3.50;92.83;101528.72;10381663;28;20125;-76
2022/04/01 18:13:58;;;;;;;1.85;1.75;;;;;;;3.31;88.39;101523.31;10380232;28;20054;-76
2022/04/01 18:19:02;;;;;;;5.15;1.92;;;;;;;3.26;87.91;101547.81;10381266;28;20041;-76
2022/04/01 18:24:03;;;;;;;10.48;2.10;;;;;;;3.13;88.90;101542.69;10383879;28;20033;-76
2022/04/01 18:29:09;;;;;;;3.08;2.78;;;;;;;2.96;85.42;101560.16;10379632;28;20432;-76
2022/04/01 18:34:12;;;;;;;2.45;2.35;;;;;;;2.97;87.28;101566.41;10381560;28;20026;-76
2022/04/01 18:39:12;;;;;;;9.55;3.08;;;;;;;2.95;91.58;101571.88;10380029;28;20038;-76
2022/04/01 18:44:13;;;;;;;2.15;2.00;;;;;;;2.97;92.51;101591.31;10380434;28;20030;-76
2022/04/01 18:49:13;;;;;;;1.90;1.80;;;;;;;2.93;88.99;101599.72;10380773;28;20091;-76
2022/04/01 18:54:13;;;;;;;12.02;3.08;;;;;;;2.92;89.65;101604.22;10365777;28;20046;-76
2022/04/01 18:59:14;;;;;;;7.13;3.13;;;;;;;2.85;87.17;101608.41;10378983;28;20116;-77
2022/04/01 19:04:15;;;;;;;2.58;2.28;;;;;;;2.82;86.86;101613.16;10378353;28;20069;-75
2022/04/01 19:09:30;;;;;;;5.78;2.40;;;;;;;2.76;88.16;101623.41;10378845;28;20061;-75
2022/04/01 19:14:34;;;;;;;5.82;2.10;;;;;;;2.69;88.63;101621.38;10377936;28;20050;-75
2022/04/01 19:19:36;;;;;;;2.55;2.35;;;;;;;2.63;91.16;101627.25;10379071;28;20485;-75
2022/04/01 19:24:48;;;;;;;2.70;2.50;;;;;;;2.63;94.15;101640.59;10379358;28;20038;-76
2022/04/01 19:29:49;;;;;;;11.48;2.78;;;;;;;2.44;89.48;101641.28;10377094;28;20408;-75
2022/04/01 19:34:50;;;;;;;3.00;2.00;;;;;;;2.40;89.61;101659.41;10376946;28;20066;-75
2022/04/01 19:39:51;;;;;;;8.30;3.20;;;;;;;2.47;93.57;101652.56;10379737;28;20116;-76
2022/04/01 19:44:52;;;;;;;3.70;2.53;;;;;;;2.39;93.08;101651.50;10377068;28;20037;-75
2022/04/01 19:49:52;;;;;;;4.55;2.90;;;;;;;2.31;92.08;101657.47;10379096;28;20423;-75
2022/04/01 19:54:53;;;;;;;4.63;2.38;;;;;;;2.35;96.52;101669.59;10378723;28;20049;-75
2022/04/01 19:59:53;;;;;;;7.70;3.25;;;;;;;2.24;93.58;101675.00;10377275;28;20121;-75
2022/04/01 20:04:54;;;;;;;3.80;3.13;;;;;;;2.27;97.14;101664.91;10377280;28;20113;-75
2022/04/01 20:09:57;;;;;;;7.43;4.47;;;;;;;2.23;97.22;101684.81;10378381;28;20488;-75
2022/04/01 20:14:58;;;;;;;5.47;2.55;;;;;;;2.11;94.30;101683.16;10378907;28;20041;-76
2022/04/01 20:19:58;;;;;;;4.32;2.95;;;;;;;2.13;97.88;101686.53;10377641;28;20045;-75
2022/04/01 20:24:58;;;;;;;3.85;3.35;;;;;;;2.06;99.15;101693.34;10380600;28;20041;-75
2022/04/01 20:30:01;;;;;;;4.63;2.60;;;;;;;1.95;96.70;101691.53;10377556;28;20069;-75
2022/04/01 20:35:01;;;;;;;3.35;2.63;;;;;;;1.94;97.84;101702.31;10376520;28;20040;-75
2022/04/01 20:40:02;;;;;;;2.60;2.42;;;;;;;1.92;98.27;101699.78;10376162;28;20117;-75
2022/04/01 20:45:03;;;;;;;3.17;2.75;;;;;;;1.91;99.10;101700.75;10376011;28;20100;-75
2022/04/01 20:50:03;;;;;;;5.97;2.95;;;;;;;1.85;97.66;101701.22;10375447;28;20560;-74
2022/04/01 20:55:04;;;;;;;6.53;2.35;;;;;;;1.85;100.00;101703.91;10376110;28;20464;-75
2022/04/01 21:00:06;;;;;;;4.03;2.95;;;;;;;1.79;100.00;101699.06;10374745;28;20044;-75
2022/04/01 21:05:07;;;;;;;2.92;2.70;;;;;;;1.71;100.00;101701.47;10376511;28;20351;-75
2022/04/01 21:10:08;;;;;;;3.65;2.40;;;;;;;1.71;100.00;101707.66;10374252;28;20030;-75
2022/04/01 21:15:09;;;;;;;8.77;4.13;;;;;;;1.70;100.00;101705.13;10358035;28;20165;-75
2022/04/01 21:20:10;;;;;;;6.28;3.22;;;;;;;1.57;99.76;101705.22;10358938;28;20065;-75
2022/04/01 21:25:10;;;;;;;2.15;1.98;;;;;;;1.61;100.00;101712.88;10373791;28;20030;-75
2022/04/01 21:30:11;;;;;;;5.25;2.85;;;;;;;1.54;100.00;101706.31;10375007;28;20040;-75
2022/04/01 21:35:13;;;;;;;2.53;2.33;;;;;;;1.54;100.00;101700.97;10382887;28;20052;-75
2022/04/01 21:40:14;;;;;;;3.25;2.45;;;;;;;1.56;100.00;101708.84;10383902;28;20038;-75
2022/04/01 21:45:14;;;;;;;8.05;2.35;;;;;;;1.57;100.00;101714.09;10382577;28;20034;-75
2022/04/01 21:50:15;;;;;;;3.20;2.20;;;;;;;1.69;100.00;101712.28;10382289;28;20069;-75
2022/04/01 21:55:15;;;;;;;3.88;2.15;;;;;;;1.69;100.00;101720.31;10381733;28;20038;-75
2022/04/01 22:00:38;;;;;;;4.50;2.13;;;;;;;1.65;100.00;101717.97;10386488;28;20037;-75
2022/04/01 22:05:38;;;;;;;4.35;2.15;;;;;;;1.78;100.00;101714.22;10382021;28;20042;-75
2022/04/01 22:10:43;;;;;;;2.30;2.10;;;;;;;1.90;100.00;101720.41;10383148;28;20232;-75
2022/04/01 22:15:45;;;;;;;2.20;1.98;;;;;;;1.81;99.71;101713.97;10380716;28;20054;-75
2022/04/01 22:20:45;;;;;;;4.85;2.38;;;;;;;1.72;100.00;101721.84;10381493;28;20058;-75
2022/04/01 22:25:45;;;;;;;1.88;1.77;;;;;;;1.74;100.00;101722.59;10382148;28;20152;-75
2022/04/01 22:30:46;;;;;;;1.60;1.50;;;;;;;1.90;100.00;101723.09;10383040;28;20116;-75
2022/04/01 22:35:47;;;;;;;2.80;2.58;;;;;;;1.81;100.00;101724.66;10379948;28;20109;-75
2022/04/01 22:40:47;;;;;;;2.25;1.98;;;;;;;1.73;100.00;101723.56;10382572;28;20397;-75
2022/04/01 22:45:48;;;;;;;2.95;2.00;;;;;;;1.79;100.00;101720.44;10379880;28;20104;-75
2022/04/01 22:50:48;;;;;;;12.13;2.65;;;;;;;1.88;100.00;101735.69;10381053;28;20034;-75
2022/04/01 22:55:49;;;;;;;20.75;3.60;;;;;;;2.09;100.00;101735.84;10363049;28;20045;-75
2022/04/01 23:00:49;;;;;;;4.45;2.33;;;;;;;2.24;100.00;101733.78;10381937;28;20037;-75
2022/04/01 23:05:50;;;;;;;2.17;1.92;;;;;;;2.42;100.00;101732.28;10380409;28;20161;-75
2022/04/01 23:10:51;;;;;;;4.07;1.83;;;;;;;2.47;97.81;101742.63;10379639;28;20552;-75
2022/04/01 23:15:52;;;;;;;10.25;3.10;;;;;;;2.42;97.80;101751.00;10379714;28;20088;-75
2022/04/01 23:20:52;;;;;;;4.57;2.65;;;;;;;2.41;98.82;101754.66;10379572;28;20057;-75
2022/04/01 23:25:53;;;;;;;5.63;2.42;;;;;;;2.42;98.07;101752.81;10378325;28;20034;-75
2022/04/01 23:30:53;;;;;;;5.07;2.40;;;;;;;2.54;100.00;101750.00;10378288;28;20034;-75